sensor_id;sensor_type;location;lat;lon;timestamp;temperature;humidity
37300;DHT22;23184;51.902;12.836;2022-11-20T00:01:18;-0.50;99.90
37300;DHT22;23184;51.902;12.836;2022-11-20T00:03:45;-0.50;99.90
37300;DHT22;23184;51.902;12.836;2022-11-20T00:06:14;-0.50;99.90
37300;DHT22;23184;51.902;12.836;2022-11-20T00:08:40;-0.40;99.90
37300;DHT22;23184;51.902;12.836;2022-11-20T00:11:08;-0.40;99.90
37300;DHT22;23184;51.902;12.836;2022-11-20T00:13:34;-0.50;99.90
37300;DHT22;23184;51.902;12.836;2022-11-20T00:16:01;-0.50;99.90
37300;DHT22;23184;51.902;12.836;2022-11-20T00:18:27;-0.50;99.90
37300;DHT22;23184;51.902;12.836;2022-11-20T00:20:53;-0.50;99.90
37300;DHT22;23184;51.902;12.836;2022-11-20T00:23:19;-0.50;99.90
37300;DHT22;23184;51.902;12.836;2022-11-20T00:25:45;-0.50;99.90
37300;DHT22;23184;51.902;12.836;2022-11-20T00:28:10;-0.50;99.90
37300;DHT22;23184;51.902;12.836;2022-11-20T00:30:36;-0.40;99.90
37300;DHT22;23184;51.902;12.836;2022-11-20T00:33:01;-0.40;99.90
37300;DHT22;23184;51.902;12.836;2022-11-20T00:35:27;-0.40;99.90
37300;DHT22;23184;51.902;12.836;2022-11-20T00:37:53;-0.40;99.90
37300;DHT22;23184;51.902;12.836;2022-11-20T00:40:18;-0.40;99.90
37300;DHT22;23184;51.902;12.836;2022-11-20T00:42:44;-0.40;99.90
37300;DHT22;23184;51.902;12.836;2022-11-20T00:45:09;-0.30;99.90
37300;DHT22;23184;51.902;12.836;2022-11-20T00:47:35;-0.40;99.90
37300;DHT22;23184;51.902;12.836;2022-11-20T00:50:00;-0.40;99.90
37300;DHT22;23184;51.902;12.836;2022-11-20T00:52:26;-0.40;99.90
37300;DHT22;23184;51.902;12.836;2022-11-20T00:54:51;-0.50;99.90
37300;DHT22;23184;51.902;12.836;2022-11-20T00:57:17;-0.50;99.90
37300;DHT22;23184;51.902;12.836;2022-11-20T00:59:42;-0.50;99.90
37300;DHT22;23184;51.902;12.836;2022-11-20T01:02:08;-0.50;99.90
37300;DHT22;23184;51.902;12.836;2022-11-20T01:04:34;-0.50;99.90
37300;DHT22;23184;51.902;12.836;2022-11-20T01:06:59;-0.40;99.90
37300;DHT22;23184;51.902;12.836;2022-11-20T01:09:25;-0.40;99.90
37300;DHT22;23184;51.902;12.836;2022-11-20T01:11:50;-0.50;99.90
37300;DHT22;23184;51.902;12.836;2022-11-20T01:14:18;-0.50;99.90
37300;DHT22;23184;51.902;12.836;2022-11-20T01:16:47;-0.50;99.90
37300;DHT22;23184;51.902;12.836;2022-11-20T01:19:19;-0.50;99.90
37300;DHT22;23184;51.902;12.836;2022-11-20T01:21:47;-0.50;99.90
37300;DHT22;23184;51.902;12.836;2022-11-20T01:24:16;-0.50;99.90
37300;DHT22;23184;51.902;12.836;2022-11-20T01:26:44;-0.50;99.90
37300;DHT22;23184;51.902;12.836;2022-11-20T01:29:14;-0.50;99.90
37300;DHT22;23184;51.902;12.836;2022-11-20T01:31:41;-0.50;99.90
37300;DHT22;23184;51.902;12.836;2022-11-20T01:34:10;-0.50;99.90
37300;DHT22;23184;51.902;12.836;2022-11-20T01:36:37;-0.50;99.90
37300;DHT22;23184;51.902;12.836;2022-11-20T01:39:15;-0.50;99.90
37300;DHT22;23184;51.902;12.836;2022-11-20T01:41:41;-0.50;99.90
37300;DHT22;23184;51.902;12.836;2022-11-20T01:47:16;-0.50;99.90
37300;DHT22;23184;51.902;12.836;2022-11-20T01:49:49;-0.50;99.90
37300;DHT22;23184;51.902;12.836;2022-11-20T01:52:21;-0.60;99.90
37300;DHT22;23184;51.902;12.836;2022-11-20T01:55:19;-0.60;99.90
37300;DHT22;23184;51.902;12.836;2022-11-20T01:57:45;-0.60;99.90
37300;DHT22;23184;51.902;12.836;2022-11-20T02:00:14;-0.60;99.90
37300;DHT22;23184;51.902;12.836;2022-11-20T02:02:43;-0.60;99.90
37300;DHT22;23184;51.902;12.836;2022-11-20T02:05:24;-0.70;99.90
37300;DHT22;23184;51.902;12.836;2022-11-20T02:07:50;-0.70;99.90
37300;DHT22;23184;51.902;12.836;2022-11-20T02:10:18;-0.70;99.90
37300;DHT22;23184;51.902;12.836;2022-11-20T02:12:44;-0.70;99.90
37300;DHT22;23184;51.902;12.836;2022-11-20T02:15:28;-0.70;99.90
37300;DHT22;23184;51.902;12.836;2022-11-20T02:17:53;-0.70;99.90
37300;DHT22;23184;51.902;12.836;2022-11-20T02:20:19;-0.80;99.90
37300;DHT22;23184;51.902;12.836;2022-11-20T02:22:54;-0.80;99.90
37300;DHT22;23184;51.902;12.836;2022-11-20T02:25:21;-0.80;99.90
37300;DHT22;23184;51.902;12.836;2022-11-20T02:27:48;-0.80;99.90
37300;DHT22;23184;51.902;12.836;2022-11-20T02:30:14;-0.90;99.90
37300;DHT22;23184;51.902;12.836;2022-11-20T02:32:39;-0.90;99.90
37300;DHT22;23184;51.902;12.836;2022-11-20T02:35:54;-0.90;99.90
37300;DHT22;23184;51.902;12.836;2022-11-20T02:37:57;-0.90;99.90
37300;DHT22;23184;51.902;12.836;2022-11-20T02:40:23;-1.00;99.90
37300;DHT22;23184;51.902;12.836;2022-11-20T02:42:53;-1.00;99.90
37300;DHT22;23184;51.902;12.836;2022-11-20T02:45:18;-1.00;99.90
37300;DHT22;23184;51.902;12.836;2022-11-20T02:47:44;-1.00;99.90
37300;DHT22;23184;51.902;12.836;2022-11-20T02:50:10;-1.00;99.90
37300;DHT22;23184;51.902;12.836;2022-11-20T02:52:36;-1.10;99.90
37300;DHT22;23184;51.902;12.836;2022-11-20T02:55:01;-1.10;99.90
37300;DHT22;23184;51.902;12.836;2022-11-20T02:57:27;-1.20;99.90
37300;DHT22;23184;51.902;12.836;2022-11-20T02:59:53;-1.20;99.90
37300;DHT22;23184;51.902;12.836;2022-11-20T03:02:18;-1.30;99.90
37300;DHT22;23184;51.902;12.836;2022-11-20T03:04:44;-1.30;99.90
37300;DHT22;23184;51.902;12.836;2022-11-20T03:07:10;-1.40;99.90
37300;DHT22;23184;51.902;12.836;2022-11-20T03:09:35;-1.50;99.90
37300;DHT22;23184;51.902;12.836;2022-11-20T03:12:01;-1.50;99.90
37300;DHT22;23184;51.902;12.836;2022-11-20T03:14:27;-1.60;99.90
37300;DHT22;23184;51.902;12.836;2022-11-20T03:16:52;-1.70;99.90
37300;DHT22;23184;51.902;12.836;2022-11-20T03:19:18;-1.80;99.90
37300;DHT22;23184;51.902;12.836;2022-11-20T03:21:43;-1.80;99.90
37300;DHT22;23184;51.902;12.836;2022-11-20T03:24:09;-1.90;99.90
37300;DHT22;23184;51.902;12.836;2022-11-20T03:26:34;-2.00;99.90
37300;DHT22;23184;51.902;12.836;2022-11-20T03:29:02;-2.00;99.90
37300;DHT22;23184;51.902;12.836;2022-11-20T03:31:31;-2.10;99.90
37300;DHT22;23184;51.902;12.836;2022-11-20T03:33:58;-2.20;99.90
37300;DHT22;23184;51.902;12.836;2022-11-20T03:36:24;-2.20;99.90
37300;DHT22;23184;51.902;12.836;2022-11-20T03:38:50;-2.30;99.90
37300;DHT22;23184;51.902;12.836;2022-11-20T03:41:23;-2.30;99.90
37300;DHT22;23184;51.902;12.836;2022-11-20T03:43:50;-2.30;99.90
37300;DHT22;23184;51.902;12.836;2022-11-20T03:46:16;-2.30;99.90
37300;DHT22;23184;51.902;12.836;2022-11-20T03:48:42;-2.30;99.90
37300;DHT22;23184;51.902;12.836;2022-11-20T03:51:19;-2.40;99.90
37300;DHT22;23184;51.902;12.836;2022-11-20T03:53:47;-2.40;99.90
37300;DHT22;23184;51.902;12.836;2022-11-20T03:56:15;-2.40;99.90
37300;DHT22;23184;51.902;12.836;2022-11-20T03:58:41;-2.40;99.90
37300;DHT22;23184;51.902;12.836;2022-11-20T04:01:12;-2.40;99.90
37300;DHT22;23184;51.902;12.836;2022-11-20T04:03:39;-2.40;99.90
37300;DHT22;23184;51.902;12.836;2022-11-20T04:06:17;-2.40;99.90
37300;DHT22;23184;51.902;12.836;2022-11-20T04:08:43;-2.30;99.90
37300;DHT22;23184;51.902;12.836;2022-11-20T04:11:17;-2.30;99.90
37300;DHT22;23184;51.902;12.836;2022-11-20T04:13:47;-2.20;99.90
37300;DHT22;23184;51.902;12.836;2022-11-20T04:16:13;-2.20;99.90
37300;DHT22;23184;51.902;12.836;2022-11-20T04:18:39;-2.20;99.90
37300;DHT22;23184;51.902;12.836;2022-11-20T04:21:05;-2.30;99.90
37300;DHT22;23184;51.902;12.836;2022-11-20T04:23:31;-2.20;99.90
37300;DHT22;23184;51.902;12.836;2022-11-20T04:26:02;-2.20;99.90
37300;DHT22;23184;51.902;12.836;2022-11-20T04:28:28;-2.10;99.90
37300;DHT22;23184;51.902;12.836;2022-11-20T04:30:53;-2.20;99.90
37300;DHT22;23184;51.902;12.836;2022-11-20T04:33:19;-2.20;99.90
37300;DHT22;23184;51.902;12.836;2022-11-20T04:35:46;-2.20;99.90
37300;DHT22;23184;51.902;12.836;2022-11-20T04:38:13;-2.20;99.90
37300;DHT22;23184;51.902;12.836;2022-11-20T04:40:38;-2.20;99.90
37300;DHT22;23184;51.902;12.836;2022-11-20T04:43:04;-2.20;99.90
37300;DHT22;23184;51.902;12.836;2022-11-20T04:45:30;-2.20;99.90
37300;DHT22;23184;51.902;12.836;2022-11-20T04:47:55;-2.20;99.90
37300;DHT22;23184;51.902;12.836;2022-11-20T04:50:21;-2.20;99.90
37300;DHT22;23184;51.902;12.836;2022-11-20T04:52:46;-2.20;99.90
37300;DHT22;23184;51.902;12.836;2022-11-20T04:55:12;-2.20;99.90
37300;DHT22;23184;51.902;12.836;2022-11-20T04:57:37;-2.20;99.90
37300;DHT22;23184;51.902;12.836;2022-11-20T05:00:03;-2.20;99.90
37300;DHT22;23184;51.902;12.836;2022-11-20T05:02:31;-2.20;99.90
37300;DHT22;23184;51.902;12.836;2022-11-20T05:04:57;-2.20;99.90
37300;DHT22;23184;51.902;12.836;2022-11-20T05:07:22;-2.20;99.90
37300;DHT22;23184;51.902;12.836;2022-11-20T05:09:48;-2.30;99.90
37300;DHT22;23184;51.902;12.836;2022-11-20T05:12:13;-2.30;99.90
37300;DHT22;23184;51.902;12.836;2022-11-20T05:14:39;-2.30;99.90
37300;DHT22;23184;51.902;12.836;2022-11-20T05:17:04;-2.20;99.90
37300;DHT22;23184;51.902;12.836;2022-11-20T05:19:30;-2.20;99.90
37300;DHT22;23184;51.902;12.836;2022-11-20T05:21:56;-2.20;99.90
37300;DHT22;23184;51.902;12.836;2022-11-20T05:24:22;-2.20;99.90
37300;DHT22;23184;51.902;12.836;2022-11-20T05:26:47;-2.10;99.90
37300;DHT22;23184;51.902;12.836;2022-11-20T05:29:13;-2.20;99.90
37300;DHT22;23184;51.902;12.836;2022-11-20T05:31:39;-2.30;99.90
37300;DHT22;23184;51.902;12.836;2022-11-20T05:34:05;-2.20;99.90
37300;DHT22;23184;51.902;12.836;2022-11-20T05:36:31;-2.30;99.90
37300;DHT22;23184;51.902;12.836;2022-11-20T05:38:57;-2.40;99.90
37300;DHT22;23184;51.902;12.836;2022-11-20T05:41:23;-2.40;99.90
37300;DHT22;23184;51.902;12.836;2022-11-20T05:43:49;-2.50;99.90
37300;DHT22;23184;51.902;12.836;2022-11-20T05:46:18;-2.50;99.90
37300;DHT22;23184;51.902;12.836;2022-11-20T05:48:44;-2.60;99.90
37300;DHT22;23184;51.902;12.836;2022-11-20T05:51:12;-2.60;99.90
37300;DHT22;23184;51.902;12.836;2022-11-20T05:53:38;-2.60;99.90
37300;DHT22;23184;51.902;12.836;2022-11-20T05:56:07;-2.70;99.90
37300;DHT22;23184;51.902;12.836;2022-11-20T05:58:33;-2.70;99.90
37300;DHT22;23184;51.902;12.836;2022-11-20T06:01:12;-2.70;99.90
37300;DHT22;23184;51.902;12.836;2022-11-20T06:03:38;-2.70;99.90
37300;DHT22;23184;51.902;12.836;2022-11-20T06:06:05;-2.70;99.90
37300;DHT22;23184;51.902;12.836;2022-11-20T06:08:32;-2.70;99.90
37300;DHT22;23184;51.902;12.836;2022-11-20T06:10:58;-2.70;99.90
37300;DHT22;23184;51.902;12.836;2022-11-20T06:13:24;-2.70;99.90
37300;DHT22;23184;51.902;12.836;2022-11-20T06:15:50;-2.80;99.90
37300;DHT22;23184;51.902;12.836;2022-11-20T06:18:17;-2.90;99.90
37300;DHT22;23184;51.902;12.836;2022-11-20T06:20:43;-2.80;99.90
37300;DHT22;23184;51.902;12.836;2022-11-20T06:23:09;-2.90;99.90
37300;DHT22;23184;51.902;12.836;2022-11-20T06:25:40;-3.00;99.90
37300;DHT22;23184;51.902;12.836;2022-11-20T06:28:06;-3.00;99.90
37300;DHT22;23184;51.902;12.836;2022-11-20T06:30:32;-2.90;99.90
37300;DHT22;23184;51.902;12.836;2022-11-20T06:32:58;-3.00;99.90
37300;DHT22;23184;51.902;12.836;2022-11-20T06:35:23;-3.00;99.90
37300;DHT22;23184;51.902;12.836;2022-11-20T06:37:49;-3.00;99.90
37300;DHT22;23184;51.902;12.836;2022-11-20T06:40:14;-3.00;99.90
37300;DHT22;23184;51.902;12.836;2022-11-20T06:42:40;-3.10;99.90
37300;DHT22;23184;51.902;12.836;2022-11-20T06:45:06;-3.00;99.90
37300;DHT22;23184;51.902;12.836;2022-11-20T06:47:32;-3.00;99.90
37300;DHT22;23184;51.902;12.836;2022-11-20T06:49:57;-3.00;99.90
37300;DHT22;23184;51.902;12.836;2022-11-20T06:52:23;-3.00;99.90
37300;DHT22;23184;51.902;12.836;2022-11-20T06:54:48;-3.00;99.90
37300;DHT22;23184;51.902;12.836;2022-11-20T06:57:14;-3.00;99.90
37300;DHT22;23184;51.902;12.836;2022-11-20T06:59:39;-2.90;99.90
37300;DHT22;23184;51.902;12.836;2022-11-20T07:02:05;-3.00;99.90
37300;DHT22;23184;51.902;12.836;2022-11-20T07:04:31;-3.00;99.90
37300;DHT22;23184;51.902;12.836;2022-11-20T07:06:57;-3.00;99.90
37300;DHT22;23184;51.902;12.836;2022-11-20T07:09:22;-3.00;99.90
37300;DHT22;23184;51.902;12.836;2022-11-20T07:11:48;-2.90;99.90
37300;DHT22;23184;51.902;12.836;2022-11-20T07:14:13;-2.90;99.90
37300;DHT22;23184;51.902;12.836;2022-11-20T07:16:39;-2.90;99.90
37300;DHT22;23184;51.902;12.836;2022-11-20T07:19:04;-2.90;99.90
37300;DHT22;23184;51.902;12.836;2022-11-20T07:21:30;-3.00;99.90
37300;DHT22;23184;51.902;12.836;2022-11-20T07:23:55;-3.00;99.90
37300;DHT22;23184;51.902;12.836;2022-11-20T07:26:21;-3.10;99.90
37300;DHT22;23184;51.902;12.836;2022-11-20T07:28:46;-3.00;99.90
37300;DHT22;23184;51.902;12.836;2022-11-20T07:31:12;-3.00;99.90
37300;DHT22;23184;51.902;12.836;2022-11-20T07:33:38;-3.00;99.90
37300;DHT22;23184;51.902;12.836;2022-11-20T07:36:04;-3.00;99.90
37300;DHT22;23184;51.902;12.836;2022-11-20T07:38:30;-3.00;99.90
37300;DHT22;23184;51.902;12.836;2022-11-20T07:40:57;-3.00;99.90
37300;DHT22;23184;51.902;12.836;2022-11-20T07:43:29;-3.00;99.90
37300;DHT22;23184;51.902;12.836;2022-11-20T07:45:55;-3.00;99.90
37300;DHT22;23184;51.902;12.836;2022-11-20T07:48:22;-3.00;99.90
37300;DHT22;23184;51.902;12.836;2022-11-20T07:50:47;-3.00;99.90
37300;DHT22;23184;51.902;12.836;2022-11-20T07:53:13;-3.00;99.90
37300;DHT22;23184;51.902;12.836;2022-11-20T07:55:39;-2.90;99.90
37300;DHT22;23184;51.902;12.836;2022-11-20T07:58:05;-2.90;99.90
37300;DHT22;23184;51.902;12.836;2022-11-20T08:00:30;-2.90;99.90
37300;DHT22;23184;51.902;12.836;2022-11-20T08:02:56;-2.80;99.90
37300;DHT22;23184;51.902;12.836;2022-11-20T08:05:21;-2.70;99.90
37300;DHT22;23184;51.902;12.836;2022-11-20T08:07:47;-2.70;99.90
37300;DHT22;23184;51.902;12.836;2022-11-20T08:10:14;-2.70;99.90
37300;DHT22;23184;51.902;12.836;2022-11-20T08:12:59;-2.70;99.90
37300;DHT22;23184;51.902;12.836;2022-11-20T08:15:48;-2.70;99.90
37300;DHT22;23184;51.902;12.836;2022-11-20T08:18:15;-2.70;99.90
37300;DHT22;23184;51.902;12.836;2022-11-20T08:20:41;-2.60;99.90
37300;DHT22;23184;51.902;12.836;2022-11-20T08:23:07;-2.50;99.90
37300;DHT22;23184;51.902;12.836;2022-11-20T08:25:34;-2.50;99.90
37300;DHT22;23184;51.902;12.836;2022-11-20T08:28:02;-2.60;99.90
37300;DHT22;23184;51.902;12.836;2022-11-20T08:30:28;-2.40;99.90
37300;DHT22;23184;51.902;12.836;2022-11-20T08:32:54;-2.30;99.90
37300;DHT22;23184;51.902;12.836;2022-11-20T08:35:21;-2.10;99.90
37300;DHT22;23184;51.902;12.836;2022-11-20T08:37:48;-1.60;99.90
37300;DHT22;23184;51.902;12.836;2022-11-20T08:40:13;-1.50;99.90
37300;DHT22;23184;51.902;12.836;2022-11-20T08:42:49;-1.20;99.90
37300;DHT22;23184;51.902;12.836;2022-11-20T08:45:16;-0.80;99.90
37300;DHT22;23184;51.902;12.836;2022-11-20T08:47:42;-0.80;99.90
37300;DHT22;23184;51.902;12.836;2022-11-20T08:50:10;-0.50;99.90
37300;DHT22;23184;51.902;12.836;2022-11-20T08:52:36;-0.60;99.90
37300;DHT22;23184;51.902;12.836;2022-11-20T08:55:01;-0.90;99.90
37300;DHT22;23184;51.902;12.836;2022-11-20T08:57:27;-0.80;99.90
37300;DHT22;23184;51.902;12.836;2022-11-20T08:59:53;-0.80;99.90
37300;DHT22;23184;51.902;12.836;2022-11-20T09:02:18;-0.70;99.90
37300;DHT22;23184;51.902;12.836;2022-11-20T09:04:44;-0.50;99.90
37300;DHT22;23184;51.902;12.836;2022-11-20T09:07:09;-0.50;99.90
37300;DHT22;23184;51.902;12.836;2022-11-20T09:09:35;-0.80;99.90
37300;DHT22;23184;51.902;12.836;2022-11-20T09:12:00;-0.90;99.90
37300;DHT22;23184;51.902;12.836;2022-11-20T09:14:26;-0.80;99.90
37300;DHT22;23184;51.902;12.836;2022-11-20T09:16:55;-1.00;99.90
37300;DHT22;23184;51.902;12.836;2022-11-20T09:19:20;-0.90;99.90
37300;DHT22;23184;51.902;12.836;2022-11-20T09:21:46;-1.10;99.90
37300;DHT22;23184;51.902;12.836;2022-11-20T09:24:12;-1.30;99.90
37300;DHT22;23184;51.902;12.836;2022-11-20T09:26:37;-1.30;99.90
37300;DHT22;23184;51.902;12.836;2022-11-20T09:29:03;-1.20;99.90
37300;DHT22;23184;51.902;12.836;2022-11-20T09:31:28;-1.10;99.90
37300;DHT22;23184;51.902;12.836;2022-11-20T09:33:54;-1.00;99.90
37300;DHT22;23184;51.902;12.836;2022-11-20T09:36:19;-0.90;99.90
37300;DHT22;23184;51.902;12.836;2022-11-20T09:38:46;-0.80;99.90
37300;DHT22;23184;51.902;12.836;2022-11-20T09:55:03;-0.30;99.90
37300;DHT22;23184;51.902;12.836;2022-11-20T09:57:39;-0.10;99.90
37300;DHT22;23184;51.902;12.836;2022-11-20T10:00:10;-0.20;99.90
37300;DHT22;23184;51.902;12.836;2022-11-20T10:03:24;-0.20;99.90
37300;DHT22;23184;51.902;12.836;2022-11-20T10:05:54;-0.10;99.90
37300;DHT22;23184;51.902;12.836;2022-11-20T10:08:23;-0.10;99.90
37300;DHT22;23184;51.902;12.836;2022-11-20T10:11:04;0.10;99.90
37300;DHT22;23184;51.902;12.836;2022-11-20T10:14:04;0.10;99.90
37300;DHT22;23184;51.902;12.836;2022-11-20T10:22:34;0.10;99.90
37300;DHT22;23184;51.902;12.836;2022-11-20T10:25:20;0.30;99.90
37300;DHT22;23184;51.902;12.836;2022-11-20T10:30:46;0.40;99.90
37300;DHT22;23184;51.902;12.836;2022-11-20T10:33:21;0.30;99.90
37300;DHT22;23184;51.902;12.836;2022-11-20T10:38:40;0.40;99.90
37300;DHT22;23184;51.902;12.836;2022-11-20T10:41:23;0.50;99.90
37300;DHT22;23184;51.902;12.836;2022-11-20T10:44:01;0.50;99.90
37300;DHT22;23184;51.902;12.836;2022-11-20T10:46:34;0.60;99.90
37300;DHT22;23184;51.902;12.836;2022-11-20T10:49:04;0.60;99.90
37300;DHT22;23184;51.902;12.836;2022-11-20T10:51:57;0.70;99.90
37300;DHT22;23184;51.902;12.836;2022-11-20T11:00:07;0.90;99.90
37300;DHT22;23184;51.902;12.836;2022-11-20T11:02:47;1.00;99.90
37300;DHT22;23184;51.902;12.836;2022-11-20T11:05:48;1.00;99.90
37300;DHT22;23184;51.902;12.836;2022-11-20T11:08:17;1.00;99.90
37300;DHT22;23184;51.902;12.836;2022-11-20T11:11:02;1.00;99.90
37300;DHT22;23184;51.902;12.836;2022-11-20T11:13:32;1.00;99.90
37300;DHT22;23184;51.902;12.836;2022-11-20T11:15:58;1.10;99.90
37300;DHT22;23184;51.902;12.836;2022-11-20T11:18:29;1.10;99.90
37300;DHT22;23184;51.902;12.836;2022-11-20T11:20:56;1.20;99.90
37300;DHT22;23184;51.902;12.836;2022-11-20T11:25:59;1.20;99.90
37300;DHT22;23184;51.902;12.836;2022-11-20T11:28:26;1.30;99.90
37300;DHT22;23184;51.902;12.836;2022-11-20T11:30:53;1.30;99.90
37300;DHT22;23184;51.902;12.836;2022-11-20T11:33:30;1.20;99.90
37300;DHT22;23184;51.902;12.836;2022-11-20T11:35:59;1.20;99.90
37300;DHT22;23184;51.902;12.836;2022-11-20T11:38:35;1.20;99.90
37300;DHT22;23184;51.902;12.836;2022-11-20T11:41:02;1.30;99.90
37300;DHT22;23184;51.902;12.836;2022-11-20T11:43:33;1.30;99.90
37300;DHT22;23184;51.902;12.836;2022-11-20T11:54:30;1.60;99.90
37300;DHT22;23184;51.902;12.836;2022-11-20T11:57:00;1.60;99.90
37300;DHT22;23184;51.902;12.836;2022-11-20T11:59:46;1.70;99.90
37300;DHT22;23184;51.902;12.836;2022-11-20T12:02:47;1.70;99.90
37300;DHT22;23184;51.902;12.836;2022-11-20T12:05:30;1.80;99.90
37300;DHT22;23184;51.902;12.836;2022-11-20T12:10:55;2.00;99.90
37300;DHT22;23184;51.902;12.836;2022-11-20T12:15:49;2.10;99.90
37300;DHT22;23184;51.902;12.836;2022-11-20T12:18:20;2.30;99.90
37300;DHT22;23184;51.902;12.836;2022-11-20T12:31:56;2.50;99.90
37300;DHT22;23184;51.902;12.836;2022-11-20T12:34:31;2.50;99.90
37300;DHT22;23184;51.902;12.836;2022-11-20T12:37:13;2.50;99.90
37300;DHT22;23184;51.902;12.836;2022-11-20T12:39:41;2.30;99.90
37300;DHT22;23184;51.902;12.836;2022-11-20T12:45:29;2.00;99.90
37300;DHT22;23184;51.902;12.836;2022-11-20T12:48:10;2.00;99.90
37300;DHT22;23184;51.902;12.836;2022-11-20T12:50:49;1.80;99.90
37300;DHT22;23184;51.902;12.836;2022-11-20T12:53:45;1.70;99.90
37300;DHT22;23184;51.902;12.836;2022-11-20T12:56:43;1.60;99.90
37300;DHT22;23184;51.902;12.836;2022-11-20T13:01:47;1.50;99.90
37300;DHT22;23184;51.902;12.836;2022-11-20T13:07:14;1.40;99.90
37300;DHT22;23184;51.902;12.836;2022-11-20T13:09:44;1.40;99.90
37300;DHT22;23184;51.902;12.836;2022-11-20T13:12:35;1.40;99.90
37300;DHT22;23184;51.902;12.836;2022-11-20T13:17:47;1.30;99.90
37300;DHT22;23184;51.902;12.836;2022-11-20T13:20:18;1.30;99.90
37300;DHT22;23184;51.902;12.836;2022-11-20T13:22:46;1.30;99.90
37300;DHT22;23184;51.902;12.836;2022-11-20T13:25:38;1.30;99.90
37300;DHT22;23184;51.902;12.836;2022-11-20T13:28:26;1.30;99.90
37300;DHT22;23184;51.902;12.836;2022-11-20T13:30:53;1.30;99.90
37300;DHT22;23184;51.902;12.836;2022-11-20T13:36:00;1.40;99.90
37300;DHT22;23184;51.902;12.836;2022-11-20T13:38:26;1.40;99.90
37300;DHT22;23184;51.902;12.836;2022-11-20T13:40:53;1.30;99.90
37300;DHT22;23184;51.902;12.836;2022-11-20T13:46:05;1.40;99.90
37300;DHT22;23184;51.902;12.836;2022-11-20T13:48:33;1.40;99.90
37300;DHT22;23184;51.902;12.836;2022-11-20T13:51:26;1.40;99.90
37300;DHT22;23184;51.902;12.836;2022-11-20T14:01:53;1.60;99.90
37300;DHT22;23184;51.902;12.836;2022-11-20T14:04:26;1.70;99.90
37300;DHT22;23184;51.902;12.836;2022-11-20T14:06:54;1.70;99.90
37300;DHT22;23184;51.902;12.836;2022-11-20T14:09:27;1.80;99.90
37300;DHT22;23184;51.902;12.836;2022-11-20T14:11:53;1.80;99.90
37300;DHT22;23184;51.902;12.836;2022-11-20T14:14:21;1.70;99.90
37300;DHT22;23184;51.902;12.836;2022-11-20T14:16:48;1.80;99.90
37300;DHT22;23184;51.902;12.836;2022-11-20T14:24:13;1.70;99.90
37300;DHT22;23184;51.902;12.836;2022-11-20T14:26:42;1.80;99.90
37300;DHT22;23184;51.902;12.836;2022-11-20T14:29:20;1.80;99.90
37300;DHT22;23184;51.902;12.836;2022-11-20T14:31:48;1.70;99.90
37300;DHT22;23184;51.902;12.836;2022-11-20T14:34:20;1.60;99.90
37300;DHT22;23184;51.902;12.836;2022-11-20T14:36:46;1.60;99.90
37300;DHT22;23184;51.902;12.836;2022-11-20T14:39:20;1.60;99.90
37300;DHT22;23184;51.902;12.836;2022-11-20T14:41:52;1.60;99.90
37300;DHT22;23184;51.902;12.836;2022-11-20T14:44:21;1.70;99.90
37300;DHT22;23184;51.902;12.836;2022-11-20T14:46:48;1.60;99.90
37300;DHT22;23184;51.902;12.836;2022-11-20T14:49:16;1.60;99.90
37300;DHT22;23184;51.902;12.836;2022-11-20T14:51:41;1.70;99.90
37300;DHT22;23184;51.902;12.836;2022-11-20T14:54:18;1.70;99.90
37300;DHT22;23184;51.902;12.836;2022-11-20T14:57:24;1.50;99.90
37300;DHT22;23184;51.902;12.836;2022-11-20T14:59:49;1.10;99.90
37300;DHT22;23184;51.902;12.836;2022-11-20T15:02:16;1.00;99.90
37300;DHT22;23184;51.902;12.836;2022-11-20T15:04:49;0.70;99.90
37300;DHT22;23184;51.902;12.836;2022-11-20T15:07:25;0.50;99.90
37300;DHT22;23184;51.902;12.836;2022-11-20T15:10:05;0.40;99.90
37300;DHT22;23184;51.902;12.836;2022-11-20T15:12:32;0.30;99.90
37300;DHT22;23184;51.902;12.836;2022-11-20T15:14:59;0.20;99.90
37300;DHT22;23184;51.902;12.836;2022-11-20T15:17:25;0.10;99.90
37300;DHT22;23184;51.902;12.836;2022-11-20T15:19:52;0.00;99.90
37300;DHT22;23184;51.902;12.836;2022-11-20T15:22:18;-0.20;99.90
37300;DHT22;23184;51.902;12.836;2022-11-20T15:24:45;-0.30;99.90
37300;DHT22;23184;51.902;12.836;2022-11-20T15:27:10;-0.30;99.90
37300;DHT22;23184;51.902;12.836;2022-11-20T15:29:36;-0.50;99.90
37300;DHT22;23184;51.902;12.836;2022-11-20T15:32:02;-0.50;99.90
37300;DHT22;23184;51.902;12.836;2022-11-20T15:34:27;-0.60;99.90
37300;DHT22;23184;51.902;12.836;2022-11-20T15:36:53;-0.60;99.90
37300;DHT22;23184;51.902;12.836;2022-11-20T15:39:20;-0.50;99.90
37300;DHT22;23184;51.902;12.836;2022-11-20T15:41:46;-0.50;99.90
37300;DHT22;23184;51.902;12.836;2022-11-20T15:44:12;-0.50;99.90
37300;DHT22;23184;51.902;12.836;2022-11-20T15:46:40;-0.50;99.90
37300;DHT22;23184;51.902;12.836;2022-11-20T15:49:13;-0.70;99.90
37300;DHT22;23184;51.902;12.836;2022-11-20T15:51:43;-0.80;99.90
37300;DHT22;23184;51.902;12.836;2022-11-20T15:54:16;-0.80;99.90
37300;DHT22;23184;51.902;12.836;2022-11-20T15:56:46;-0.80;99.90
37300;DHT22;23184;51.902;12.836;2022-11-20T15:59:12;-0.90;99.90
37300;DHT22;23184;51.902;12.836;2022-11-20T16:01:40;-1.00;99.90
37300;DHT22;23184;51.902;12.836;2022-11-20T16:04:14;-1.00;99.90
37300;DHT22;23184;51.902;12.836;2022-11-20T16:06:40;-1.00;99.90
37300;DHT22;23184;51.902;12.836;2022-11-20T16:09:06;-1.00;99.90
37300;DHT22;23184;51.902;12.836;2022-11-20T16:11:32;-0.90;99.90
37300;DHT22;23184;51.902;12.836;2022-11-20T16:13:58;-1.00;99.90
37300;DHT22;23184;51.902;12.836;2022-11-20T16:16:42;-1.10;99.90
37300;DHT22;23184;51.902;12.836;2022-11-20T16:19:12;-1.20;99.90
37300;DHT22;23184;51.902;12.836;2022-11-20T16:21:38;-1.20;99.90
37300;DHT22;23184;51.902;12.836;2022-11-20T16:24:08;-1.30;99.90
37300;DHT22;23184;51.902;12.836;2022-11-20T16:26:34;-1.30;99.90
37300;DHT22;23184;51.902;12.836;2022-11-20T16:29:01;-1.20;99.90
37300;DHT22;23184;51.902;12.836;2022-11-20T16:31:27;-1.30;99.90
37300;DHT22;23184;51.902;12.836;2022-11-20T16:33:55;-1.30;99.90
37300;DHT22;23184;51.902;12.836;2022-11-20T16:36:23;-1.40;99.90
37300;DHT22;23184;51.902;12.836;2022-11-20T16:38:53;-1.40;99.90
37300;DHT22;23184;51.902;12.836;2022-11-20T16:41:19;-1.30;99.90
37300;DHT22;23184;51.902;12.836;2022-11-20T16:43:50;-1.30;99.90
37300;DHT22;23184;51.902;12.836;2022-11-20T16:46:17;-1.20;99.90
37300;DHT22;23184;51.902;12.836;2022-11-20T16:48:45;-1.20;99.90
37300;DHT22;23184;51.902;12.836;2022-11-20T16:51:11;-1.20;99.90
37300;DHT22;23184;51.902;12.836;2022-11-20T16:53:38;-1.20;99.90
37300;DHT22;23184;51.902;12.836;2022-11-20T16:56:14;-1.20;99.90
37300;DHT22;23184;51.902;12.836;2022-11-20T16:58:47;-1.20;99.90
37300;DHT22;23184;51.902;12.836;2022-11-20T17:01:15;-1.10;99.90
37300;DHT22;23184;51.902;12.836;2022-11-20T17:03:42;-1.20;99.90